createdAt,value
2022-08-14T00:01:36.848Z,21.90
2022-08-14T00:04:34.072Z,22.00
2022-08-14T00:06:50.864Z,22.00
2022-08-14T00:09:17.756Z,21.90
2022-08-14T00:11:47.052Z,21.90
2022-08-14T00:14:17.411Z,21.90
2022-08-14T00:16:45.154Z,21.80
2022-08-14T00:19:18.749Z,21.80
2022-08-14T00:21:47.810Z,21.80
2022-08-14T00:24:22.945Z,21.70
2022-08-14T00:27:01.778Z,21.70
2022-08-14T00:29:39.874Z,21.70
2022-08-14T00:32:52.981Z,21.70
2022-08-14T00:34:57.062Z,21.60
2022-08-14T00:37:24.468Z,21.60
2022-08-14T00:39:51.416Z,21.60
2022-08-14T00:43:02.950Z,21.60
2022-08-14T00:45:13.832Z,21.50
2022-08-14T00:47:44.994Z,21.50
2022-08-14T00:50:18.313Z,21.50
2022-08-14T00:52:47.453Z,21.50
2022-08-14T00:55:18.646Z,21.40
2022-08-14T00:58:06.535Z,21.30
2022-08-14T01:00:47.211Z,21.30
2022-08-14T01:03:20.095Z,21.20
2022-08-14T01:05:52.099Z,21.20
2022-08-14T01:08:51.856Z,21.10
2022-08-14T01:11:09.787Z,21.10
2022-08-14T01:13:42.658Z,21.00
2022-08-14T01:16:19.403Z,20.90
2022-08-14T01:19:13.549Z,20.80
2022-08-14T01:21:46.850Z,20.80
2022-08-14T01:24:24.662Z,20.80
2022-08-14T01:27:00.235Z,20.80
2022-08-14T01:29:59.367Z,20.80
2022-08-14T01:32:23.106Z,20.80
2022-08-14T01:35:18.334Z,20.80
2022-08-14T01:37:54.871Z,20.80
2022-08-14T01:40:37.196Z,20.70
2022-08-14T01:43:14.678Z,20.70
2022-08-14T01:45:42.718Z,20.60
2022-08-14T01:48:20.827Z,20.60
2022-08-14T01:50:47.999Z,20.50
2022-08-14T01:53:15.483Z,20.50
2022-08-14T01:55:42.802Z,20.50
2022-08-14T01:58:19.457Z,20.40
2022-08-14T02:00:55.441Z,20.40
2022-08-14T02:03:29.938Z,20.30
2022-08-14T02:06:03.832Z,20.20
2022-08-14T02:08:52.902Z,20.10
2022-08-14T02:11:24.205Z,20.00
2022-08-14T02:14:00.075Z,19.90
2022-08-14T02:16:39.350Z,19.80
2022-08-14T02:19:14.262Z,19.80
2022-08-14T02:21:48.755Z,19.80
2022-08-14T02:24:38.703Z,19.80
2022-08-14T02:28:24.819Z,19.90
2022-08-14T02:29:59.150Z,19.80
2022-08-14T02:32:36.045Z,19.90
2022-08-14T02:35:16.384Z,19.80
2022-08-14T02:37:49.708Z,19.90
2022-08-14T02:40:18.824Z,19.90
2022-08-14T02:42:55.365Z,19.90
2022-08-14T02:45:38.842Z,19.90
2022-08-14T02:49:04.363Z,19.90
2022-08-14T02:51:02.642Z,19.90
2022-08-14T02:53:31.127Z,19.90
2022-08-14T02:56:03.116Z,19.80
2022-08-14T02:58:41.844Z,19.80
2022-08-14T03:01:10.961Z,19.90
2022-08-14T03:03:38.776Z,19.90
2022-08-14T03:06:07.068Z,19.90
2022-08-14T03:08:37.945Z,19.80
2022-08-14T03:11:09.404Z,19.80
2022-08-14T03:13:41.464Z,19.70
2022-08-14T03:16:20.330Z,19.70
2022-08-14T03:18:58.317Z,19.70
2022-08-14T03:21:26.869Z,19.70
2022-08-14T03:24:21.439Z,19.70
2022-08-14T03:26:49.979Z,19.60
2022-08-14T03:29:24.679Z,19.60
2022-08-14T03:31:54.611Z,19.60
2022-08-14T03:34:24.779Z,19.60
2022-08-14T03:37:51.401Z,19.60
2022-08-14T03:40:00.499Z,19.60
2022-08-14T03:42:36.123Z,19.50
2022-08-14T03:45:26.720Z,19.50
2022-08-14T03:47:58.932Z,19.50
2022-08-14T03:50:31.272Z,19.40
2022-08-14T03:53:03.040Z,19.40
2022-08-14T03:55:30.977Z,19.30
2022-08-14T03:58:00.372Z,19.20
2022-08-14T04:00:43.767Z,19.20
2022-08-14T04:03:18.004Z,19.20
2022-08-14T04:05:48.923Z,19.10
2022-08-14T04:08:23.125Z,19.10
2022-08-14T04:10:57.405Z,19.10
2022-08-14T04:13:25.062Z,19.10
2022-08-14T04:16:02.089Z,19.00
2022-08-14T04:18:33.982Z,19.00
2022-08-14T04:21:01.284Z,19.00
2022-08-14T04:23:29.936Z,19.00
2022-08-14T04:26:08.253Z,19.00
2022-08-14T04:29:07.227Z,19.10
2022-08-14T04:32:58.632Z,19.10
2022-08-14T04:34:20.649Z,19.10
2022-08-14T04:37:09.192Z,19.10
2022-08-14T04:39:56.948Z,19.10
2022-08-14T04:42:47.198Z,19.10
2022-08-14T04:45:20.936Z,19.20
2022-08-14T04:48:06.054Z,19.10
2022-08-14T04:50:44.132Z,19.10
2022-08-14T04:53:19.008Z,19.10
2022-08-14T04:55:51.617Z,19.10
2022-08-14T04:58:32.838Z,19.20
2022-08-14T05:01:03.286Z,19.10
2022-08-14T05:03:33.277Z,19.10
2022-08-14T05:06:03.131Z,19.10
2022-08-14T05:08:50.458Z,19.10
2022-08-14T05:11:19.847Z,19.00
2022-08-14T05:16:34.038Z,19.10
2022-08-14T05:19:18.127Z,19.10
2022-08-14T05:22:00.464Z,19.20
2022-08-14T05:24:34.554Z,19.30
2022-08-14T05:27:03.286Z,19.30
2022-08-14T05:29:31.185Z,19.40
2022-08-14T05:32:01.268Z,19.50
2022-08-14T05:34:31.462Z,19.60
2022-08-14T05:36:58.854Z,19.70
2022-08-14T05:39:30.095Z,19.80
2022-08-14T05:41:58.271Z,19.80
2022-08-14T05:44:29.546Z,19.90
2022-08-14T05:46:57.367Z,20.00
2022-08-14T05:49:25.970Z,20.10
2022-08-14T05:52:01.837Z,20.20
2022-08-14T05:54:35.495Z,20.40
2022-08-14T05:57:04.571Z,20.40
2022-08-14T05:59:39.337Z,20.50
2022-08-14T06:02:11.347Z,20.50
2022-08-14T06:04:39.519Z,20.60
2022-08-14T06:07:06.746Z,20.70
2022-08-14T06:09:35.731Z,20.80
2022-08-14T06:12:11.878Z,20.80
2022-08-14T06:14:39.351Z,21.00
2022-08-14T06:17:06.825Z,21.10
2022-08-14T06:19:33.881Z,21.10
2022-08-14T06:22:01.683Z,21.30
2022-08-14T06:24:30.704Z,21.30
2022-08-14T06:27:04.769Z,21.40
2022-08-14T06:29:34.718Z,21.50
2022-08-14T06:32:36.488Z,21.60
2022-08-14T06:35:03.613Z,21.70
2022-08-14T06:37:51.951Z,21.80
2022-08-14T06:40:26.724Z,21.90
2022-08-14T06:43:03.663Z,22.10
2022-08-14T06:45:36.057Z,22.20
2022-08-14T06:48:06.234Z,22.30
2022-08-14T06:50:39.668Z,22.40
2022-08-14T06:53:07.422Z,22.60
2022-08-14T06:55:34.437Z,22.70
2022-08-14T06:58:04.602Z,22.80
2022-08-14T07:00:32.900Z,22.90
2022-08-14T07:03:19.468Z,23.10
2022-08-14T07:05:55.506Z,23.20
2022-08-14T07:08:31.871Z,23.30
2022-08-14T07:11:01.563Z,23.50
2022-08-14T07:13:30.592Z,23.60
2022-08-14T07:16:00.490Z,23.70
2022-08-14T07:18:34.805Z,23.80
2022-08-14T07:21:03.063Z,24.00
2022-08-14T07:23:31.059Z,24.10
2022-08-14T07:25:59.859Z,24.20
2022-08-14T07:28:28.302Z,24.30
2022-08-14T07:31:05.121Z,24.50
2022-08-14T07:33:41.987Z,24.50
2022-08-14T07:36:27.545Z,24.70
2022-08-14T07:39:00.350Z,24.70
2022-08-14T07:41:33.925Z,24.90
2022-08-14T07:44:32.659Z,25.00
2022-08-14T07:46:50.617Z,25.00
2022-08-14T07:49:18.486Z,25.10
2022-08-14T07:51:49.536Z,25.20
2022-08-14T07:54:23.286Z,25.30
2022-08-14T07:57:06.606Z,25.40
2022-08-14T07:59:43.622Z,25.40
2022-08-14T08:02:19.458Z,25.50
2022-08-14T08:04:58.938Z,25.60
2022-08-14T08:07:29.939Z,25.60
2022-08-14T08:10:00.872Z,25.70
2022-08-14T08:12:32.447Z,25.80
2022-08-14T08:15:02.852Z,25.90
2022-08-14T08:17:38.574Z,26.00
2022-08-14T08:20:19.923Z,26.00
2022-08-14T08:22:49.998Z,26.10
2022-08-14T08:25:23.790Z,26.10
2022-08-14T08:27:59.625Z,26.30
2022-08-14T08:30:27.605Z,26.40
2022-08-14T08:32:59.188Z,26.40
2022-08-14T08:35:46.672Z,26.50
2022-08-14T08:39:17.659Z,26.50
2022-08-14T08:41:04.859Z,26.60
2022-08-14T08:43:37.026Z,26.70
2022-08-14T08:46:21.676Z,26.80
2022-08-14T08:51:34.398Z,27.10
2022-08-14T08:54:19.744Z,27.10
2022-08-14T08:56:52.722Z,27.30
2022-08-14T08:59:27.334Z,27.30
2022-08-14T09:02:04.167Z,27.40
2022-08-14T09:04:45.201Z,27.50
2022-08-14T09:07:25.508Z,27.50
2022-08-14T09:09:59.764Z,27.60
2022-08-14T09:12:32.631Z,27.80
2022-08-14T09:15:12.119Z,27.90
2022-08-14T09:17:44.228Z,27.90
2022-08-14T09:20:14.113Z,27.90
2022-08-14T09:22:55.110Z,28.00
2022-08-14T09:25:59.760Z,28.10
2022-08-14T09:28:10.258Z,28.10
2022-08-14T09:30:41.323Z,28.10
2022-08-14T09:33:32.139Z,28.10
2022-08-14T09:36:36.240Z,28.20
2022-08-14T09:39:23.717Z,28.20
2022-08-14T09:42:34.064Z,28.40
2022-08-14T09:45:13.864Z,28.50
2022-08-14T09:47:54.176Z,28.70
2022-08-14T09:50:28.688Z,28.80
2022-08-14T09:53:17.905Z,28.90
2022-08-14T09:55:58.440Z,29.10
2022-08-14T09:58:43.848Z,29.30
2022-08-14T10:01:19.259Z,29.40
2022-08-14T10:04:33.129Z,29.50
2022-08-14T10:07:02.832Z,29.50
2022-08-14T10:09:33.562Z,29.70
2022-08-14T10:12:04.341Z,29.80
2022-08-14T10:14:36.644Z,29.60
2022-08-14T10:17:06.878Z,29.50
2022-08-14T10:19:36.444Z,29.70
2022-08-14T10:23:12.223Z,29.80
2022-08-14T10:24:59.890Z,29.80
2022-08-14T10:27:28.917Z,29.70
2022-08-14T10:30:00.998Z,29.90
2022-08-14T10:32:51.196Z,30.00
2022-08-14T10:35:16.756Z,30.00
2022-08-14T10:37:50.180Z,30.00
2022-08-14T10:40:43.636Z,30.00
2022-08-14T10:43:31.574Z,30.10
2022-08-14T10:46:21.927Z,30.40
2022-08-14T10:49:06.402Z,30.60
2022-08-14T10:51:36.121Z,30.70
2022-08-14T10:54:17.067Z,30.80
2022-08-14T10:56:57.275Z,30.70
2022-08-14T10:59:30.831Z,30.70
2022-08-14T11:02:01.726Z,30.90
2022-08-14T11:04:30.531Z,31.00
2022-08-14T11:06:57.995Z,31.20
2022-08-14T11:09:26.454Z,31.20
2022-08-14T11:12:34.159Z,31.10
2022-08-14T11:15:02.660Z,31.30
2022-08-14T11:17:34.000Z,31.30
2022-08-14T11:20:03.483Z,31.40
2022-08-14T11:22:55.437Z,31.70
2022-08-14T11:25:23.558Z,31.90
2022-08-14T11:27:52.992Z,32.00
2022-08-14T11:30:50.242Z,31.90
2022-08-14T11:33:23.056Z,32.00
2022-08-14T11:35:50.095Z,32.20
2022-08-14T11:38:20.063Z,32.30
2022-08-14T11:40:47.989Z,32.40
2022-08-14T11:43:15.369Z,32.40
2022-08-14T11:45:48.755Z,32.20
2022-08-14T11:49:04.361Z,31.90
2022-08-14T11:51:13.671Z,31.70
2022-08-14T11:53:42.158Z,31.60
2022-08-14T11:56:10.972Z,31.70
2022-08-14T11:58:40.119Z,31.80
2022-08-14T12:01:09.566Z,31.90
2022-08-14T12:03:52.125Z,32.20
2022-08-14T12:06:28.721Z,32.40
2022-08-14T12:09:08.547Z,32.60
2022-08-14T12:11:47.219Z,32.40
2022-08-14T12:14:30.798Z,32.20
2022-08-14T12:17:12.749Z,32.20
2022-08-14T12:19:51.238Z,32.20
2022-08-14T12:22:42.339Z,32.20
2022-08-14T12:25:21.289Z,32.20
2022-08-14T12:27:59.353Z,32.30
2022-08-14T12:30:38.110Z,32.50
2022-08-14T12:33:31.086Z,32.90
2022-08-14T12:36:04.570Z,33.30
2022-08-14T12:38:36.536Z,33.50
2022-08-14T12:41:09.297Z,33.80
2022-08-14T12:43:51.897Z,33.80
2022-08-14T12:46:29.160Z,33.70
2022-08-14T12:48:59.500Z,33.40
2022-08-14T12:51:28.594Z,33.50
2022-08-14T12:53:59.191Z,33.80
2022-08-14T12:56:32.931Z,33.90
2022-08-14T12:59:01.718Z,34.00
2022-08-14T13:01:31.460Z,34.00
2022-08-14T13:04:08.386Z,34.00
2022-08-14T13:06:38.422Z,34.20
2022-08-14T13:09:11.073Z,34.60
2022-08-14T13:11:58.899Z,34.40
2022-08-14T13:14:38.811Z,34.20
2022-08-14T13:17:09.039Z,34.40
2022-08-14T13:19:40.751Z,34.40
2022-08-14T13:22:10.188Z,34.50
2022-08-14T13:24:55.355Z,34.80
2022-08-14T13:27:25.732Z,34.80
2022-08-14T13:29:57.416Z,34.90
2022-08-14T13:32:25.464Z,35.10
2022-08-14T13:34:52.738Z,35.20
2022-08-14T13:37:19.826Z,35.20
2022-08-14T13:39:56.970Z,34.90
2022-08-14T13:42:30.655Z,34.80
2022-08-14T13:45:01.203Z,34.60
2022-08-14T13:47:30.416Z,34.80
2022-08-14T13:50:04.866Z,34.60
2022-08-14T13:52:52.942Z,34.30
2022-08-14T13:55:29.418Z,34.00
2022-08-14T13:58:04.118Z,33.70
2022-08-14T14:00:35.628Z,34.00
2022-08-14T14:03:08.840Z,34.50
2022-08-14T14:05:52.861Z,34.70
2022-08-14T14:08:46.851Z,34.50
2022-08-14T14:11:10.446Z,34.20
2022-08-14T14:13:42.037Z,34.00
2022-08-14T14:16:15.393Z,34.10
2022-08-14T14:18:52.488Z,34.00
2022-08-14T14:21:21.732Z,34.00
2022-08-14T14:23:49.202Z,34.10
2022-08-14T14:26:23.373Z,33.80
2022-08-14T14:28:56.668Z,33.50
2022-08-14T14:31:30.385Z,33.30
2022-08-14T14:34:07.670Z,33.60
2022-08-14T14:36:50.057Z,34.00
2022-08-14T14:39:23.126Z,34.40
2022-08-14T14:41:56.169Z,34.40
2022-08-14T14:44:25.641Z,34.00
2022-08-14T14:46:54.434Z,33.70
2022-08-14T14:49:31.657Z,33.50
2022-08-14T14:52:15.282Z,33.20
2022-08-14T14:54:50.608Z,33.00
2022-08-14T14:57:19.277Z,33.00
2022-08-14T14:59:46.160Z,33.10
2022-08-14T15:02:47.377Z,33.40
2022-08-14T15:05:20.092Z,33.50
2022-08-14T15:07:49.421Z,33.30
2022-08-14T15:10:27.344Z,33.50
2022-08-14T15:13:03.621Z,33.60
2022-08-14T15:15:32.851Z,33.60
2022-08-14T15:18:01.183Z,33.50
2022-08-14T15:20:30.503Z,33.30
2022-08-14T15:23:12.388Z,33.30
2022-08-14T15:25:41.022Z,33.40
2022-08-14T15:28:12.791Z,33.60
2022-08-14T15:30:44.838Z,33.80
2022-08-14T15:34:00.924Z,34.00
2022-08-14T15:36:29.429Z,34.20
2022-08-14T15:38:58.268Z,34.30
2022-08-14T15:41:25.258Z,34.40
2022-08-14T15:43:53.271Z,34.80
2022-08-14T15:46:41.246Z,34.80
2022-08-14T15:49:10.880Z,35.10
2022-08-14T15:51:42.108Z,35.30
2022-08-14T15:54:11.420Z,35.40
2022-08-14T15:56:42.945Z,35.60
2022-08-14T15:59:13.205Z,35.60
2022-08-14T16:01:54.329Z,35.60
2022-08-14T16:04:23.745Z,35.40
2022-08-14T16:06:54.541Z,35.30
2022-08-14T16:09:21.782Z,35.30
2022-08-14T16:11:50.754Z,35.10
2022-08-14T16:14:21.795Z,35.00
2022-08-14T16:16:59.934Z,34.90
2022-08-14T16:19:31.174Z,34.60
2022-08-14T16:22:58.250Z,34.80
2022-08-14T16:24:57.820Z,34.80
2022-08-14T16:27:37.179Z,34.90
2022-08-14T16:30:20.839Z,35.10
2022-08-14T16:32:55.593Z,35.40
2022-08-14T16:35:42.194Z,35.30
2022-08-14T16:38:29.407Z,35.20
2022-08-14T16:41:23.017Z,35.10
2022-08-14T16:44:02.342Z,34.90
2022-08-14T16:46:34.844Z,34.80
2022-08-14T16:49:05.510Z,34.70
2022-08-14T16:51:36.590Z,34.60
2022-08-14T16:54:33.662Z,34.50
2022-08-14T16:57:28.024Z,34.40
2022-08-14T17:00:00.386Z,34.00
2022-08-14T17:02:39.738Z,33.90
2022-08-14T17:05:20.978Z,33.60
2022-08-14T17:08:31.605Z,33.50
2022-08-14T17:10:55.816Z,33.30
2022-08-14T17:13:47.291Z,33.40
2022-08-14T17:16:25.033Z,33.30
2022-08-14T17:19:01.011Z,33.30
2022-08-14T17:21:31.565Z,33.20
2022-08-14T17:24:57.342Z,33.20
2022-08-14T17:26:55.941Z,33.30
2022-08-14T17:29:29.619Z,33.30
2022-08-14T17:32:02.228Z,33.30
2022-08-14T17:34:49.261Z,33.40
2022-08-14T17:37:34.038Z,33.40
2022-08-14T17:40:22.844Z,33.20
2022-08-14T17:42:58.955Z,33.10
2022-08-14T17:45:41.619Z,33.00
2022-08-14T17:49:10.144Z,33.00
2022-08-14T17:51:24.013Z,33.00
2022-08-14T17:54:03.003Z,32.90
2022-08-14T17:56:33.615Z,32.80
2022-08-14T17:59:05.719Z,32.70
2022-08-14T18:01:37.370Z,32.60
2022-08-14T18:04:24.401Z,32.40
2022-08-14T18:06:57.747Z,32.30
2022-08-14T18:09:57.165Z,32.00
2022-08-14T18:12:36.560Z,31.90
2022-08-14T18:15:17.492Z,31.80
2022-08-14T18:17:52.703Z,31.70
2022-08-14T18:21:42.625Z,31.50
2022-08-14T18:23:12.887Z,31.40
2022-08-14T18:25:51.650Z,31.40
2022-08-14T18:28:49.014Z,31.20
2022-08-14T18:31:20.728Z,31.10
2022-08-14T18:33:56.483Z,30.90
2022-08-14T18:36:54.439Z,30.80
2022-08-14T18:39:29.735Z,30.80
2022-08-14T18:42:23.882Z,30.70
2022-08-14T18:44:51.292Z,30.60
2022-08-14T18:47:21.800Z,30.40
2022-08-14T18:49:57.962Z,30.30
2022-08-14T18:52:34.654Z,30.30
2022-08-14T18:55:20.881Z,30.10
2022-08-14T18:57:58.039Z,30.00
2022-08-14T19:00:51.427Z,29.90
2022-08-14T19:03:18.691Z,29.80
2022-08-14T19:05:49.530Z,29.80
2022-08-14T19:08:22.173Z,29.80
2022-08-14T19:10:59.503Z,29.70
2022-08-14T19:13:48.546Z,29.60
2022-08-14T19:16:22.895Z,29.60
2022-08-14T19:18:53.272Z,29.40
2022-08-14T19:21:32.454Z,29.40
2022-08-14T19:24:29.782Z,29.30
2022-08-14T19:27:12.962Z,29.20
2022-08-14T19:29:40.148Z,29.20
2022-08-14T19:32:36.670Z,29.20
2022-08-14T19:35:16.825Z,29.10
2022-08-14T19:37:47.745Z,29.10
2022-08-14T19:40:38.463Z,29.00
2022-08-14T19:43:09.613Z,28.90
2022-08-14T19:45:38.441Z,28.80
2022-08-14T19:48:14.107Z,28.70
2022-08-14T19:50:44.402Z,28.70
2022-08-14T19:53:17.509Z,28.70
2022-08-14T19:55:58.519Z,28.70
2022-08-14T19:58:54.859Z,28.60
2022-08-14T20:01:37.142Z,28.60
2022-08-14T20:04:46.039Z,28.50
2022-08-14T20:07:58.911Z,28.40
2022-08-14T20:11:06.339Z,28.40
2022-08-14T20:13:25.137Z,28.40
2022-08-14T20:16:02.091Z,28.30
2022-08-14T20:21:18.412Z,28.30
2022-08-14T20:23:47.782Z,28.20
2022-08-14T20:26:31.844Z,28.10
2022-08-14T20:29:04.927Z,28.10
2022-08-14T20:31:37.381Z,28.10
2022-08-14T20:34:19.090Z,28.10
2022-08-14T20:37:17.415Z,28.00
2022-08-14T20:39:54.239Z,27.90
2022-08-14T20:42:43.632Z,27.90
2022-08-14T20:45:18.818Z,27.80
2022-08-14T20:47:50.688Z,27.70
2022-08-14T20:50:28.907Z,27.70
2022-08-14T20:53:05.849Z,27.70
2022-08-14T20:55:41.401Z,27.60
2022-08-14T20:58:44.172Z,27.60
2022-08-14T21:01:13.812Z,27.50
2022-08-14T21:03:58.029Z,27.40
2022-08-14T21:07:22.864Z,27.40
2022-08-14T21:10:05.284Z,27.40
2022-08-14T21:12:32.675Z,27.30
2022-08-14T21:15:01.069Z,27.30
2022-08-14T21:17:29.559Z,27.30
2022-08-14T21:19:56.723Z,27.30
2022-08-14T21:22:24.929Z,27.20
2022-08-14T21:25:01.472Z,27.20
2022-08-14T21:27:37.470Z,27.20
2022-08-14T21:30:08.459Z,27.10
2022-08-14T21:32:50.511Z,27.10
2022-08-14T21:35:26.022Z,27.10
2022-08-14T21:37:53.709Z,27.10
2022-08-14T21:40:40.000Z,27.00
2022-08-14T21:43:18.022Z,27.00
2022-08-14T21:45:53.069Z,27.00
2022-08-14T21:48:25.196Z,27.00
2022-08-14T21:51:00.261Z,27.00
2022-08-14T21:53:58.596Z,27.00
2022-08-14T21:56:37.344Z,26.90
2022-08-14T21:59:10.607Z,26.90
2022-08-14T22:02:00.903Z,26.80
2022-08-14T22:04:33.347Z,26.70
2022-08-14T22:07:07.135Z,26.70
2022-08-14T22:09:36.680Z,26.70
2022-08-14T22:12:07.258Z,26.70
2022-08-14T22:14:43.240Z,26.60
2022-08-14T22:17:16.373Z,26.50
2022-08-14T22:19:54.324Z,26.50
2022-08-14T22:22:26.638Z,26.50
2022-08-14T22:24:59.948Z,26.40
2022-08-14T22:27:29.725Z,26.40
2022-08-14T22:30:00.039Z,26.40
2022-08-14T22:32:34.998Z,26.30
2022-08-14T22:35:03.866Z,26.30
2022-08-14T22:37:36.737Z,26.30
2022-08-14T22:40:17.163Z,26.30
2022-08-14T22:43:00.415Z,26.30
2022-08-14T22:45:36.424Z,26.30
2022-08-14T22:48:05.221Z,26.20
2022-08-14T22:50:53.488Z,26.20
2022-08-14T22:53:21.797Z,26.10
2022-08-14T22:55:52.109Z,26.10
2022-08-14T22:58:31.425Z,26.00
2022-08-14T23:01:05.551Z,26.00
2022-08-14T23:03:38.732Z,26.00
2022-08-14T23:07:04.197Z,26.00
2022-08-14T23:09:02.127Z,26.00
2022-08-14T23:11:46.806Z,25.90
2022-08-14T23:14:15.378Z,26.00
2022-08-14T23:16:57.468Z,25.90
2022-08-14T23:19:33.644Z,25.90
2022-08-14T23:22:03.398Z,25.80
2022-08-14T23:24:30.698Z,25.70
2022-08-14T23:26:58.004Z,25.60
2022-08-14T23:29:25.016Z,25.60
2022-08-14T23:31:52.462Z,25.60
2022-08-14T23:34:21.784Z,25.60
2022-08-14T23:36:55.344Z,25.60
2022-08-14T23:39:31.492Z,25.60
2022-08-14T23:42:05.912Z,25.50
2022-08-14T23:44:37.526Z,25.40
2022-08-14T23:47:12.118Z,25.50
2022-08-14T23:50:00.475Z,25.40
2022-08-14T23:52:50.707Z,25.40
2022-08-14T23:55:28.911Z,25.40
2022-08-14T23:57:57.714Z,25.30
